sensor_id;sensor_type;location;lat;lon;timestamp;P1;durP1;ratioP1;P2;durP2;ratioP2
69837;SDS011;57135;51.992;4.476;2023-11-19T00:00:43;11.33;;;7.09;;
69837;SDS011;57135;51.992;4.476;2023-11-19T00:03:08;12.97;;;7.92;;
69837;SDS011;57135;51.992;4.476;2023-11-19T00:05:34;12.90;;;7.95;;
69837;SDS011;57135;51.992;4.476;2023-11-19T00:08:00;13.66;;;8.29;;
69837;SDS011;57135;51.992;4.476;2023-11-19T00:10:25;12.01;;;7.39;;
69837;SDS011;57135;51.992;4.476;2023-11-19T00:12:51;11.37;;;7.12;;
69837;SDS011;57135;51.992;4.476;2023-11-19T00:15:16;13.16;;;8.11;;
69837;SDS011;57135;51.992;4.476;2023-11-19T00:17:47;12.36;;;7.65;;
69837;SDS011;57135;51.992;4.476;2023-11-19T00:20:19;13.58;;;8.23;;
69837;SDS011;57135;51.992;4.476;2023-11-19T00:22:47;12.09;;;7.44;;
69837;SDS011;57135;51.992;4.476;2023-11-19T00:25:16;12.73;;;7.81;;
69837;SDS011;57135;51.992;4.476;2023-11-19T00:27:43;13.48;;;8.31;;
69837;SDS011;57135;51.992;4.476;2023-11-19T00:30:11;13.17;;;8.06;;
69837;SDS011;57135;51.992;4.476;2023-11-19T00:32:38;14.64;;;8.81;;
69837;SDS011;57135;51.992;4.476;2023-11-19T00:35:07;14.40;;;8.59;;
69837;SDS011;57135;51.992;4.476;2023-11-19T00:37:34;14.41;;;8.57;;
69837;SDS011;57135;51.992;4.476;2023-11-19T00:39:59;15.68;;;9.40;;
69837;SDS011;57135;51.992;4.476;2023-11-19T00:42:24;14.19;;;8.62;;
69837;SDS011;57135;51.992;4.476;2023-11-19T00:44:50;14.04;;;8.54;;
69837;SDS011;57135;51.992;4.476;2023-11-19T00:47:16;13.97;;;8.44;;
69837;SDS011;57135;51.992;4.476;2023-11-19T00:49:45;13.75;;;8.31;;
69837;SDS011;57135;51.992;4.476;2023-11-19T00:52:14;15.12;;;9.07;;
69837;SDS011;57135;51.992;4.476;2023-11-19T00:54:40;16.29;;;9.75;;
69837;SDS011;57135;51.992;4.476;2023-11-19T00:57:06;14.50;;;8.78;;
69837;SDS011;57135;51.992;4.476;2023-11-19T00:59:32;13.71;;;8.42;;
69837;SDS011;57135;51.992;4.476;2023-11-19T01:01:58;13.91;;;8.46;;
69837;SDS011;57135;51.992;4.476;2023-11-19T01:04:28;14.52;;;8.83;;
69837;SDS011;57135;51.992;4.476;2023-11-19T01:06:54;14.01;;;8.53;;
69837;SDS011;57135;51.992;4.476;2023-11-19T01:09:19;14.80;;;8.99;;
69837;SDS011;57135;51.992;4.476;2023-11-19T01:11:45;15.41;;;9.33;;
69837;SDS011;57135;51.992;4.476;2023-11-19T01:14:10;16.04;;;9.63;;
69837;SDS011;57135;51.992;4.476;2023-11-19T01:16:37;16.47;;;9.74;;
69837;SDS011;57135;51.992;4.476;2023-11-19T01:19:02;18.31;;;10.95;;
69837;SDS011;57135;51.992;4.476;2023-11-19T01:21:30;16.49;;;10.04;;
69837;SDS011;57135;51.992;4.476;2023-11-19T01:23:56;15.47;;;9.28;;
69837;SDS011;57135;51.992;4.476;2023-11-19T01:26:23;18.18;;;10.88;;
69837;SDS011;57135;51.992;4.476;2023-11-19T01:28:49;16.43;;;9.96;;
69837;SDS011;57135;51.992;4.476;2023-11-19T01:31:14;16.95;;;10.35;;
69837;SDS011;57135;51.992;4.476;2023-11-19T01:33:40;17.72;;;10.66;;
69837;SDS011;57135;51.992;4.476;2023-11-19T01:36:07;15.18;;;9.12;;
69837;SDS011;57135;51.992;4.476;2023-11-19T01:38:34;17.50;;;10.52;;
69837;SDS011;57135;51.992;4.476;2023-11-19T01:41:00;17.10;;;10.40;;
69837;SDS011;57135;51.992;4.476;2023-11-19T01:43:32;15.76;;;9.63;;
69837;SDS011;57135;51.992;4.476;2023-11-19T01:46:01;16.07;;;9.74;;
69837;SDS011;57135;51.992;4.476;2023-11-19T01:48:34;15.30;;;9.37;;
69837;SDS011;57135;51.992;4.476;2023-11-19T01:51:01;16.52;;;10.22;;
69837;SDS011;57135;51.992;4.476;2023-11-19T01:53:28;16.69;;;10.11;;
69837;SDS011;57135;51.992;4.476;2023-11-19T01:55:55;16.37;;;9.89;;
69837;SDS011;57135;51.992;4.476;2023-11-19T01:58:22;17.10;;;10.25;;
69837;SDS011;57135;51.992;4.476;2023-11-19T02:00:48;15.32;;;9.24;;
69837;SDS011;57135;51.992;4.476;2023-11-19T02:03:14;14.19;;;8.66;;
69837;SDS011;57135;51.992;4.476;2023-11-19T02:05:40;14.92;;;9.12;;
69837;SDS011;57135;51.992;4.476;2023-11-19T02:08:06;17.27;;;10.47;;
69837;SDS011;57135;51.992;4.476;2023-11-19T02:10:32;16.55;;;10.14;;
69837;SDS011;57135;51.992;4.476;2023-11-19T02:12:57;17.97;;;10.81;;
69837;SDS011;57135;51.992;4.476;2023-11-19T02:15:23;18.48;;;11.02;;
69837;SDS011;57135;51.992;4.476;2023-11-19T02:17:50;17.88;;;10.78;;
69837;SDS011;57135;51.992;4.476;2023-11-19T02:20:16;18.34;;;11.13;;
69837;SDS011;57135;51.992;4.476;2023-11-19T02:22:44;17.07;;;10.37;;
69837;SDS011;57135;51.992;4.476;2023-11-19T02:25:15;18.49;;;11.16;;
69837;SDS011;57135;51.992;4.476;2023-11-19T02:27:49;17.24;;;10.48;;
69837;SDS011;57135;51.992;4.476;2023-11-19T02:30:20;17.62;;;10.66;;
69837;SDS011;57135;51.992;4.476;2023-11-19T02:32:51;20.20;;;12.07;;
69837;SDS011;57135;51.992;4.476;2023-11-19T02:35:30;17.53;;;10.77;;
69837;SDS011;57135;51.992;4.476;2023-11-19T02:37:57;16.55;;;10.29;;
69837;SDS011;57135;51.992;4.476;2023-11-19T02:40:24;16.29;;;10.14;;
69837;SDS011;57135;51.992;4.476;2023-11-19T02:42:51;18.39;;;11.22;;
69837;SDS011;57135;51.992;4.476;2023-11-19T02:45:21;18.12;;;10.99;;
69837;SDS011;57135;51.992;4.476;2023-11-19T02:47:50;16.77;;;10.22;;
69837;SDS011;57135;51.992;4.476;2023-11-19T02:50:17;16.35;;;10.07;;
69837;SDS011;57135;51.992;4.476;2023-11-19T02:52:50;16.58;;;10.04;;
69837;SDS011;57135;51.992;4.476;2023-11-19T02:55:18;17.87;;;10.81;;
69837;SDS011;57135;51.992;4.476;2023-11-19T02:57:44;17.28;;;10.40;;
69837;SDS011;57135;51.992;4.476;2023-11-19T03:00:17;19.63;;;11.60;;
69837;SDS011;57135;51.992;4.476;2023-11-19T03:02:46;19.97;;;11.87;;
69837;SDS011;57135;51.992;4.476;2023-11-19T03:05:16;19.09;;;11.54;;
69837;SDS011;57135;51.992;4.476;2023-11-19T03:07:42;18.08;;;10.95;;
69837;SDS011;57135;51.992;4.476;2023-11-19T03:10:09;17.09;;;10.28;;
69837;SDS011;57135;51.992;4.476;2023-11-19T03:12:40;19.33;;;11.72;;
69837;SDS011;57135;51.992;4.476;2023-11-19T03:15:06;20.52;;;12.20;;
69837;SDS011;57135;51.992;4.476;2023-11-19T03:17:34;21.29;;;12.49;;
69837;SDS011;57135;51.992;4.476;2023-11-19T03:20:00;20.91;;;12.39;;
69837;SDS011;57135;51.992;4.476;2023-11-19T03:22:26;19.75;;;11.73;;
69837;SDS011;57135;51.992;4.476;2023-11-19T03:24:51;18.86;;;11.33;;
69837;SDS011;57135;51.992;4.476;2023-11-19T03:27:17;18.78;;;11.32;;
69837;SDS011;57135;51.992;4.476;2023-11-19T03:29:42;20.91;;;12.56;;
69837;SDS011;57135;51.992;4.476;2023-11-19T03:32:10;19.75;;;11.76;;
69837;SDS011;57135;51.992;4.476;2023-11-19T03:34:37;18.59;;;11.21;;
69837;SDS011;57135;51.992;4.476;2023-11-19T03:37:02;18.91;;;11.42;;
69837;SDS011;57135;51.992;4.476;2023-11-19T03:39:28;20.71;;;12.38;;
69837;SDS011;57135;51.992;4.476;2023-11-19T03:41:54;18.85;;;11.37;;
69837;SDS011;57135;51.992;4.476;2023-11-19T03:44:20;20.76;;;12.29;;
69837;SDS011;57135;51.992;4.476;2023-11-19T03:46:46;20.48;;;12.08;;
69837;SDS011;57135;51.992;4.476;2023-11-19T03:49:12;19.69;;;11.66;;
69837;SDS011;57135;51.992;4.476;2023-11-19T03:51:37;19.30;;;11.60;;
69837;SDS011;57135;51.992;4.476;2023-11-19T03:54:03;17.86;;;10.75;;
69837;SDS011;57135;51.992;4.476;2023-11-19T03:56:28;18.12;;;10.88;;
69837;SDS011;57135;51.992;4.476;2023-11-19T03:58:54;19.18;;;11.48;;
69837;SDS011;57135;51.992;4.476;2023-11-19T04:01:38;20.02;;;11.97;;
69837;SDS011;57135;51.992;4.476;2023-11-19T04:10:37;20.41;;;12.05;;
69837;SDS011;57135;51.992;4.476;2023-11-19T04:13:03;19.43;;;11.53;;
69837;SDS011;57135;51.992;4.476;2023-11-19T04:15:29;19.87;;;11.76;;
69837;SDS011;57135;51.992;4.476;2023-11-19T04:49:03;18.41;;;10.88;;
69837;SDS011;57135;51.992;4.476;2023-11-19T04:51:29;19.60;;;11.44;;
69837;SDS011;57135;51.992;4.476;2023-11-19T04:53:55;21.24;;;12.39;;
69837;SDS011;57135;51.992;4.476;2023-11-19T04:56:21;19.26;;;11.38;;
69837;SDS011;57135;51.992;4.476;2023-11-19T04:58:48;17.96;;;10.71;;
69837;SDS011;57135;51.992;4.476;2023-11-19T05:01:14;18.76;;;11.06;;
69837;SDS011;57135;51.992;4.476;2023-11-19T05:03:43;19.42;;;11.48;;
69837;SDS011;57135;51.992;4.476;2023-11-19T05:06:08;18.69;;;11.13;;
69837;SDS011;57135;51.992;4.476;2023-11-19T05:08:35;19.45;;;11.60;;
69837;SDS011;57135;51.992;4.476;2023-11-19T05:11:02;18.20;;;10.90;;
69837;SDS011;57135;51.992;4.476;2023-11-19T05:13:28;19.56;;;11.61;;
69837;SDS011;57135;51.992;4.476;2023-11-19T05:15:54;18.26;;;10.99;;
69837;SDS011;57135;51.992;4.476;2023-11-19T05:18:19;19.99;;;11.89;;
69837;SDS011;57135;51.992;4.476;2023-11-19T05:20:45;19.94;;;11.73;;
69837;SDS011;57135;51.992;4.476;2023-11-19T05:23:11;19.05;;;11.29;;
69837;SDS011;57135;51.992;4.476;2023-11-19T05:25:36;19.49;;;11.60;;
69837;SDS011;57135;51.992;4.476;2023-11-19T05:28:02;19.97;;;11.76;;
69837;SDS011;57135;51.992;4.476;2023-11-19T05:30:27;21.63;;;12.70;;
69837;SDS011;57135;51.992;4.476;2023-11-19T06:16:48;18.81;;;10.97;;
69837;SDS011;57135;51.992;4.476;2023-11-19T06:29:40;20.39;;;11.95;;
69837;SDS011;57135;51.992;4.476;2023-11-19T06:35:50;18.18;;;10.78;;
69837;SDS011;57135;51.992;4.476;2023-11-19T06:38:53;16.68;;;10.04;;
69837;SDS011;57135;51.992;4.476;2023-11-19T06:45:05;17.42;;;10.44;;
69837;SDS011;57135;51.992;4.476;2023-11-19T07:19:34;19.64;;;11.52;;
69837;SDS011;57135;51.992;4.476;2023-11-19T07:29:22;19.62;;;11.52;;
69837;SDS011;57135;51.992;4.476;2023-11-19T07:31:50;19.69;;;11.62;;
69837;SDS011;57135;51.992;4.476;2023-11-19T07:34:16;19.82;;;11.72;;
69837;SDS011;57135;51.992;4.476;2023-11-19T07:36:41;19.65;;;11.52;;
69837;SDS011;57135;51.992;4.476;2023-11-19T07:39:07;19.69;;;11.66;;
69837;SDS011;57135;51.992;4.476;2023-11-19T07:41:33;19.94;;;11.81;;
69837;SDS011;57135;51.992;4.476;2023-11-19T07:43:59;20.38;;;12.01;;
69837;SDS011;57135;51.992;4.476;2023-11-19T07:46:25;20.56;;;12.00;;
69837;SDS011;57135;51.992;4.476;2023-11-19T07:48:54;20.01;;;11.79;;
69837;SDS011;57135;51.992;4.476;2023-11-19T07:51:20;19.66;;;11.44;;
69837;SDS011;57135;51.992;4.476;2023-11-19T07:53:45;17.77;;;10.50;;
69837;SDS011;57135;51.992;4.476;2023-11-19T07:56:11;16.71;;;10.00;;
69837;SDS011;57135;51.992;4.476;2023-11-19T08:18:45;17.17;;;10.50;;
69837;SDS011;57135;51.992;4.476;2023-11-19T08:21:10;16.94;;;10.32;;
69837;SDS011;57135;51.992;4.476;2023-11-19T08:23:42;17.30;;;10.49;;
69837;SDS011;57135;51.992;4.476;2023-11-19T08:39:46;18.54;;;11.45;;
69837;SDS011;57135;51.992;4.476;2023-11-19T08:42:12;18.38;;;11.48;;
69837;SDS011;57135;51.992;4.476;2023-11-19T08:44:37;16.14;;;10.06;;
69837;SDS011;57135;51.992;4.476;2023-11-19T08:47:03;18.74;;;11.15;;
69837;SDS011;57135;51.992;4.476;2023-11-19T08:49:29;17.69;;;10.59;;
69837;SDS011;57135;51.992;4.476;2023-11-19T08:51:54;18.44;;;11.08;;
69837;SDS011;57135;51.992;4.476;2023-11-19T08:54:20;19.16;;;11.36;;
69837;SDS011;57135;51.992;4.476;2023-11-19T08:56:46;20.20;;;11.91;;
69837;SDS011;57135;51.992;4.476;2023-11-19T08:59:12;19.52;;;11.56;;
69837;SDS011;57135;51.992;4.476;2023-11-19T09:01:37;18.99;;;11.41;;
69837;SDS011;57135;51.992;4.476;2023-11-19T09:04:03;17.03;;;10.27;;
69837;SDS011;57135;51.992;4.476;2023-11-19T09:06:29;18.35;;;10.85;;
69837;SDS011;57135;51.992;4.476;2023-11-19T09:08:55;18.43;;;10.87;;
69837;SDS011;57135;51.992;4.476;2023-11-19T09:11:25;17.96;;;10.71;;
69837;SDS011;57135;51.992;4.476;2023-11-19T09:13:51;17.23;;;10.21;;
69837;SDS011;57135;51.992;4.476;2023-11-19T09:16:16;16.05;;;9.56;;
69837;SDS011;57135;51.992;4.476;2023-11-19T09:18:42;17.09;;;10.23;;
69837;SDS011;57135;51.992;4.476;2023-11-19T09:21:07;17.25;;;10.26;;
69837;SDS011;57135;51.992;4.476;2023-11-19T09:23:32;18.19;;;10.85;;
69837;SDS011;57135;51.992;4.476;2023-11-19T09:26:05;16.65;;;9.86;;
69837;SDS011;57135;51.992;4.476;2023-11-19T09:28:31;17.62;;;10.45;;
69837;SDS011;57135;51.992;4.476;2023-11-19T09:30:57;18.51;;;11.05;;
69837;SDS011;57135;51.992;4.476;2023-11-19T09:33:22;17.33;;;10.29;;
69837;SDS011;57135;51.992;4.476;2023-11-19T09:35:48;16.90;;;10.15;;
69837;SDS011;57135;51.992;4.476;2023-11-19T09:38:14;16.97;;;10.08;;
69837;SDS011;57135;51.992;4.476;2023-11-19T09:40:40;17.91;;;10.62;;
69837;SDS011;57135;51.992;4.476;2023-11-19T09:43:06;16.79;;;10.15;;
69837;SDS011;57135;51.992;4.476;2023-11-19T09:45:35;16.10;;;9.67;;
69837;SDS011;57135;51.992;4.476;2023-11-19T09:48:14;15.52;;;9.36;;
69837;SDS011;57135;51.992;4.476;2023-11-19T09:50:43;15.29;;;9.07;;
69837;SDS011;57135;51.992;4.476;2023-11-19T09:53:10;16.00;;;9.50;;
69837;SDS011;57135;51.992;4.476;2023-11-19T09:55:36;15.77;;;9.41;;
69837;SDS011;57135;51.992;4.476;2023-11-19T09:58:01;15.58;;;9.33;;
69837;SDS011;57135;51.992;4.476;2023-11-19T10:00:27;14.93;;;8.85;;
69837;SDS011;57135;51.992;4.476;2023-11-19T10:02:52;16.64;;;9.79;;
69837;SDS011;57135;51.992;4.476;2023-11-19T10:05:20;16.40;;;9.62;;
69837;SDS011;57135;51.992;4.476;2023-11-19T10:07:48;15.50;;;9.16;;
69837;SDS011;57135;51.992;4.476;2023-11-19T10:10:14;16.47;;;9.68;;
69837;SDS011;57135;51.992;4.476;2023-11-19T10:12:44;15.84;;;9.33;;
69837;SDS011;57135;51.992;4.476;2023-11-19T10:15:12;15.72;;;9.17;;
69837;SDS011;57135;51.992;4.476;2023-11-19T10:17:46;14.90;;;8.84;;
69837;SDS011;57135;51.992;4.476;2023-11-19T10:20:11;15.45;;;9.21;;
69837;SDS011;57135;51.992;4.476;2023-11-19T10:22:37;14.40;;;8.61;;
69837;SDS011;57135;51.992;4.476;2023-11-19T10:25:03;15.11;;;9.01;;
69837;SDS011;57135;51.992;4.476;2023-11-19T10:27:30;16.16;;;9.59;;
69837;SDS011;57135;51.992;4.476;2023-11-19T10:29:58;14.64;;;8.79;;
69837;SDS011;57135;51.992;4.476;2023-11-19T10:32:24;15.48;;;9.13;;
69837;SDS011;57135;51.992;4.476;2023-11-19T10:34:50;15.43;;;9.10;;
69837;SDS011;57135;51.992;4.476;2023-11-19T10:37:28;14.93;;;8.70;;
69837;SDS011;57135;51.992;4.476;2023-11-19T10:39:57;17.10;;;9.95;;
69837;SDS011;57135;51.992;4.476;2023-11-19T10:42:23;15.89;;;9.28;;
69837;SDS011;57135;51.992;4.476;2023-11-19T10:44:49;15.95;;;9.35;;
69837;SDS011;57135;51.992;4.476;2023-11-19T10:47:15;14.00;;;8.48;;
69837;SDS011;57135;51.992;4.476;2023-11-19T10:49:43;13.80;;;8.29;;
69837;SDS011;57135;51.992;4.476;2023-11-19T10:52:11;15.01;;;8.93;;
69837;SDS011;57135;51.992;4.476;2023-11-19T10:54:37;16.24;;;9.60;;
69837;SDS011;57135;51.992;4.476;2023-11-19T10:57:08;14.79;;;8.82;;
69837;SDS011;57135;51.992;4.476;2023-11-19T10:59:35;15.52;;;9.34;;
69837;SDS011;57135;51.992;4.476;2023-11-19T11:02:03;16.54;;;9.85;;
69837;SDS011;57135;51.992;4.476;2023-11-19T11:04:32;17.43;;;10.40;;
69837;SDS011;57135;51.992;4.476;2023-11-19T11:07:05;19.27;;;11.37;;
69837;SDS011;57135;51.992;4.476;2023-11-19T11:09:30;19.18;;;11.29;;
69837;SDS011;57135;51.992;4.476;2023-11-19T11:11:57;18.98;;;11.31;;
69837;SDS011;57135;51.992;4.476;2023-11-19T11:14:24;19.88;;;11.74;;
69837;SDS011;57135;51.992;4.476;2023-11-19T11:16:51;18.76;;;10.97;;
69837;SDS011;57135;51.992;4.476;2023-11-19T11:19:18;18.48;;;10.94;;
69837;SDS011;57135;51.992;4.476;2023-11-19T11:21:47;17.91;;;10.69;;
69837;SDS011;57135;51.992;4.476;2023-11-19T11:24:21;16.79;;;10.08;;
69837;SDS011;57135;51.992;4.476;2023-11-19T11:27:32;16.09;;;9.66;;
69837;SDS011;57135;51.992;4.476;2023-11-19T11:33:00;15.60;;;9.34;;
69837;SDS011;57135;51.992;4.476;2023-11-19T11:35:41;17.20;;;10.11;;
69837;SDS011;57135;51.992;4.476;2023-11-19T11:38:21;17.01;;;10.03;;
69837;SDS011;57135;51.992;4.476;2023-11-19T11:43:48;15.19;;;9.04;;
69837;SDS011;57135;51.992;4.476;2023-11-19T11:49:01;14.21;;;8.33;;
69837;SDS011;57135;51.992;4.476;2023-11-19T11:54:09;14.52;;;8.51;;
69837;SDS011;57135;51.992;4.476;2023-11-19T11:56:53;13.54;;;7.97;;
69837;SDS011;57135;51.992;4.476;2023-11-19T11:59:41;14.06;;;8.27;;
69837;SDS011;57135;51.992;4.476;2023-11-19T12:02:14;12.39;;;7.40;;
69837;SDS011;57135;51.992;4.476;2023-11-19T12:04:41;11.26;;;6.82;;
69837;SDS011;57135;51.992;4.476;2023-11-19T12:07:11;10.33;;;6.24;;
69837;SDS011;57135;51.992;4.476;2023-11-19T12:09:41;12.29;;;7.37;;
69837;SDS011;57135;51.992;4.476;2023-11-19T12:12:29;11.76;;;7.06;;
69837;SDS011;57135;51.992;4.476;2023-11-19T12:15:07;13.06;;;7.88;;
69837;SDS011;57135;51.992;4.476;2023-11-19T12:17:42;13.94;;;8.41;;
69837;SDS011;57135;51.992;4.476;2023-11-19T12:20:09;13.67;;;8.28;;
69837;SDS011;57135;51.992;4.476;2023-11-19T12:22:39;14.82;;;8.85;;
69837;SDS011;57135;51.992;4.476;2023-11-19T12:25:07;14.02;;;8.29;;
69837;SDS011;57135;51.992;4.476;2023-11-19T12:27:37;15.65;;;9.30;;
69837;SDS011;57135;51.992;4.476;2023-11-19T12:30:07;16.02;;;9.36;;
69837;SDS011;57135;51.992;4.476;2023-11-19T12:32:37;16.58;;;9.63;;
69837;SDS011;57135;51.992;4.476;2023-11-19T12:35:06;18.37;;;10.75;;
69837;SDS011;57135;51.992;4.476;2023-11-19T12:37:38;18.16;;;10.77;;
69837;SDS011;57135;51.992;4.476;2023-11-19T12:40:12;18.17;;;10.71;;
69837;SDS011;57135;51.992;4.476;2023-11-19T12:42:38;16.76;;;9.99;;
69837;SDS011;57135;51.992;4.476;2023-11-19T12:45:04;16.59;;;9.81;;
69837;SDS011;57135;51.992;4.476;2023-11-19T12:47:30;16.41;;;9.72;;
69837;SDS011;57135;51.992;4.476;2023-11-19T12:49:59;13.72;;;8.23;;
69837;SDS011;57135;51.992;4.476;2023-11-19T12:52:24;15.89;;;9.41;;
69837;SDS011;57135;51.992;4.476;2023-11-19T12:54:52;16.71;;;9.93;;
69837;SDS011;57135;51.992;4.476;2023-11-19T12:57:18;15.75;;;9.29;;
69837;SDS011;57135;51.992;4.476;2023-11-19T12:59:55;17.04;;;9.97;;
69837;SDS011;57135;51.992;4.476;2023-11-19T13:02:21;16.58;;;9.80;;
69837;SDS011;57135;51.992;4.476;2023-11-19T13:04:48;15.05;;;8.86;;
69837;SDS011;57135;51.992;4.476;2023-11-19T13:07:15;15.99;;;9.46;;
69837;SDS011;57135;51.992;4.476;2023-11-19T13:09:45;17.84;;;10.45;;
69837;SDS011;57135;51.992;4.476;2023-11-19T13:12:14;18.05;;;10.56;;
69837;SDS011;57135;51.992;4.476;2023-11-19T13:14:40;19.48;;;11.31;;
69837;SDS011;57135;51.992;4.476;2023-11-19T13:17:07;18.20;;;10.65;;
69837;SDS011;57135;51.992;4.476;2023-11-19T13:19:33;17.90;;;10.53;;
69837;SDS011;57135;51.992;4.476;2023-11-19T13:21:59;16.78;;;9.85;;
69837;SDS011;57135;51.992;4.476;2023-11-19T13:24:25;17.80;;;10.49;;
69837;SDS011;57135;51.992;4.476;2023-11-19T13:26:50;17.26;;;10.10;;
69837;SDS011;57135;51.992;4.476;2023-11-19T13:29:16;17.35;;;10.39;;
69837;SDS011;57135;51.992;4.476;2023-11-19T13:31:41;15.93;;;9.55;;
69837;SDS011;57135;51.992;4.476;2023-11-19T13:34:07;15.32;;;9.14;;
69837;SDS011;57135;51.992;4.476;2023-11-19T13:36:33;17.98;;;10.75;;
69837;SDS011;57135;51.992;4.476;2023-11-19T13:38:59;14.81;;;8.89;;
69837;SDS011;57135;51.992;4.476;2023-11-19T13:41:25;15.36;;;9.44;;
69837;SDS011;57135;51.992;4.476;2023-11-19T13:43:51;14.53;;;8.99;;
69837;SDS011;57135;51.992;4.476;2023-11-19T13:46:17;14.95;;;9.12;;
69837;SDS011;57135;51.992;4.476;2023-11-19T13:48:42;12.93;;;8.01;;
69837;SDS011;57135;51.992;4.476;2023-11-19T13:51:08;13.66;;;8.37;;
69837;SDS011;57135;51.992;4.476;2023-11-19T13:53:35;13.49;;;8.07;;
69837;SDS011;57135;51.992;4.476;2023-11-19T13:56:00;15.88;;;9.35;;
69837;SDS011;57135;51.992;4.476;2023-11-19T13:58:26;16.28;;;9.52;;
69837;SDS011;57135;51.992;4.476;2023-11-19T14:00:51;15.03;;;8.90;;
69837;SDS011;57135;51.992;4.476;2023-11-19T14:03:17;14.06;;;8.50;;
69837;SDS011;57135;51.992;4.476;2023-11-19T14:05:43;14.30;;;8.67;;
69837;SDS011;57135;51.992;4.476;2023-11-19T14:08:08;15.28;;;9.06;;
69837;SDS011;57135;51.992;4.476;2023-11-19T14:10:37;16.55;;;9.80;;
69837;SDS011;57135;51.992;4.476;2023-11-19T14:13:06;15.71;;;9.31;;
69837;SDS011;57135;51.992;4.476;2023-11-19T14:15:32;16.31;;;9.72;;
69837;SDS011;57135;51.992;4.476;2023-11-19T14:17:57;15.67;;;9.43;;
69837;SDS011;57135;51.992;4.476;2023-11-19T14:20:23;17.68;;;10.48;;
69837;SDS011;57135;51.992;4.476;2023-11-19T14:22:48;17.23;;;10.05;;
69837;SDS011;57135;51.992;4.476;2023-11-19T14:25:15;17.70;;;10.43;;
69837;SDS011;57135;51.992;4.476;2023-11-19T14:27:41;16.86;;;9.94;;
69837;SDS011;57135;51.992;4.476;2023-11-19T14:30:11;14.29;;;8.44;;
69837;SDS011;57135;51.992;4.476;2023-11-19T14:32:41;15.28;;;9.04;;
69837;SDS011;57135;51.992;4.476;2023-11-19T14:35:09;15.18;;;9.03;;
69837;SDS011;57135;51.992;4.476;2023-11-19T14:37:35;16.19;;;9.51;;
69837;SDS011;57135;51.992;4.476;2023-11-19T14:40:01;15.25;;;8.99;;
69837;SDS011;57135;51.992;4.476;2023-11-19T14:42:29;14.14;;;8.45;;
69837;SDS011;57135;51.992;4.476;2023-11-19T14:44:55;14.07;;;8.42;;
69837;SDS011;57135;51.992;4.476;2023-11-19T14:47:21;14.84;;;8.88;;
69837;SDS011;57135;51.992;4.476;2023-11-19T14:49:47;15.27;;;8.98;;
69837;SDS011;57135;51.992;4.476;2023-11-19T14:52:12;15.70;;;9.18;;
69837;SDS011;57135;51.992;4.476;2023-11-19T14:54:38;15.07;;;8.92;;
69837;SDS011;57135;51.992;4.476;2023-11-19T14:57:04;16.56;;;9.87;;
69837;SDS011;57135;51.992;4.476;2023-11-19T14:59:31;15.50;;;9.28;;
69837;SDS011;57135;51.992;4.476;2023-11-19T15:01:58;14.53;;;8.63;;
69837;SDS011;57135;51.992;4.476;2023-11-19T15:04:25;15.94;;;9.56;;
69837;SDS011;57135;51.992;4.476;2023-11-19T15:06:50;16.64;;;9.93;;
69837;SDS011;57135;51.992;4.476;2023-11-19T15:09:16;16.41;;;9.72;;
69837;SDS011;57135;51.992;4.476;2023-11-19T15:11:43;18.28;;;10.67;;
69837;SDS011;57135;51.992;4.476;2023-11-19T15:14:11;17.22;;;10.17;;
69837;SDS011;57135;51.992;4.476;2023-11-19T15:16:44;14.99;;;8.85;;
69837;SDS011;57135;51.992;4.476;2023-11-19T15:19:10;16.22;;;9.60;;
69837;SDS011;57135;51.992;4.476;2023-11-19T15:21:35;16.00;;;9.54;;
69837;SDS011;57135;51.992;4.476;2023-11-19T15:24:01;16.41;;;9.79;;
69837;SDS011;57135;51.992;4.476;2023-11-19T15:26:30;14.97;;;9.00;;
69837;SDS011;57135;51.992;4.476;2023-11-19T15:28:55;15.30;;;9.13;;
69837;SDS011;57135;51.992;4.476;2023-11-19T15:31:22;15.40;;;9.13;;
69837;SDS011;57135;51.992;4.476;2023-11-19T15:33:48;14.92;;;8.83;;
69837;SDS011;57135;51.992;4.476;2023-11-19T15:36:14;14.11;;;8.41;;
69837;SDS011;57135;51.992;4.476;2023-11-19T15:38:39;14.19;;;8.39;;
69837;SDS011;57135;51.992;4.476;2023-11-19T15:41:05;14.49;;;8.65;;
69837;SDS011;57135;51.992;4.476;2023-11-19T15:43:32;14.41;;;8.55;;
69837;SDS011;57135;51.992;4.476;2023-11-19T15:45:58;13.64;;;8.03;;
69837;SDS011;57135;51.992;4.476;2023-11-19T15:48:24;14.80;;;8.77;;
69837;SDS011;57135;51.992;4.476;2023-11-19T15:50:50;14.27;;;8.51;;
69837;SDS011;57135;51.992;4.476;2023-11-19T15:53:17;14.31;;;8.58;;
69837;SDS011;57135;51.992;4.476;2023-11-19T15:55:43;13.97;;;8.45;;
69837;SDS011;57135;51.992;4.476;2023-11-19T15:58:09;13.06;;;8.01;;
69837;SDS011;57135;51.992;4.476;2023-11-19T16:00:35;12.30;;;7.55;;
69837;SDS011;57135;51.992;4.476;2023-11-19T16:03:00;14.14;;;8.57;;
69837;SDS011;57135;51.992;4.476;2023-11-19T16:05:26;13.05;;;7.98;;
69837;SDS011;57135;51.992;4.476;2023-11-19T16:07:51;12.24;;;7.67;;
69837;SDS011;57135;51.992;4.476;2023-11-19T16:10:17;13.63;;;8.42;;
69837;SDS011;57135;51.992;4.476;2023-11-19T16:12:47;12.59;;;7.68;;
69837;SDS011;57135;51.992;4.476;2023-11-19T16:15:13;14.83;;;9.03;;
69837;SDS011;57135;51.992;4.476;2023-11-19T16:17:42;15.00;;;8.99;;
69837;SDS011;57135;51.992;4.476;2023-11-19T16:20:09;15.27;;;9.24;;
69837;SDS011;57135;51.992;4.476;2023-11-19T16:22:36;16.42;;;9.70;;
69837;SDS011;57135;51.992;4.476;2023-11-19T16:25:02;15.65;;;9.27;;
69837;SDS011;57135;51.992;4.476;2023-11-19T16:27:28;15.19;;;9.05;;
69837;SDS011;57135;51.992;4.476;2023-11-19T16:29:53;15.19;;;9.11;;
69837;SDS011;57135;51.992;4.476;2023-11-19T16:32:19;14.40;;;8.52;;
69837;SDS011;57135;51.992;4.476;2023-11-19T16:34:45;15.20;;;9.02;;
69837;SDS011;57135;51.992;4.476;2023-11-19T16:37:14;14.47;;;8.62;;
69837;SDS011;57135;51.992;4.476;2023-11-19T16:39:40;14.61;;;8.82;;
69837;SDS011;57135;51.992;4.476;2023-11-19T16:42:07;14.44;;;8.75;;
69837;SDS011;57135;51.992;4.476;2023-11-19T16:44:33;14.41;;;8.74;;
69837;SDS011;57135;51.992;4.476;2023-11-19T16:46:59;15.20;;;9.11;;
69837;SDS011;57135;51.992;4.476;2023-11-19T16:49:25;15.60;;;9.41;;
69837;SDS011;57135;51.992;4.476;2023-11-19T16:51:50;16.38;;;9.88;;
69837;SDS011;57135;51.992;4.476;2023-11-19T16:54:17;14.01;;;8.60;;
69837;SDS011;57135;51.992;4.476;2023-11-19T16:56:42;15.65;;;9.50;;
69837;SDS011;57135;51.992;4.476;2023-11-19T16:59:08;14.24;;;8.71;;
69837;SDS011;57135;51.992;4.476;2023-11-19T17:01:33;15.28;;;9.29;;
69837;SDS011;57135;51.992;4.476;2023-11-19T17:04:01;15.79;;;9.62;;
69837;SDS011;57135;51.992;4.476;2023-11-19T17:06:26;13.55;;;8.30;;
69837;SDS011;57135;51.992;4.476;2023-11-19T17:08:52;15.49;;;9.37;;
69837;SDS011;57135;51.992;4.476;2023-11-19T17:11:17;17.03;;;10.19;;
69837;SDS011;57135;51.992;4.476;2023-11-19T17:13:43;16.02;;;9.59;;
69837;SDS011;57135;51.992;4.476;2023-11-19T17:16:08;16.13;;;9.65;;
69837;SDS011;57135;51.992;4.476;2023-11-19T17:18:34;15.70;;;9.46;;
69837;SDS011;57135;51.992;4.476;2023-11-19T17:20:59;15.17;;;9.30;;
69837;SDS011;57135;51.992;4.476;2023-11-19T17:23:29;14.61;;;8.96;;
69837;SDS011;57135;51.992;4.476;2023-11-19T17:25:54;14.72;;;8.91;;
69837;SDS011;57135;51.992;4.476;2023-11-19T17:28:20;15.17;;;9.19;;
69837;SDS011;57135;51.992;4.476;2023-11-19T17:30:46;15.07;;;9.13;;
69837;SDS011;57135;51.992;4.476;2023-11-19T17:33:11;16.04;;;9.66;;